createdAt,value
2024-03-04T00:02:10.728Z,19.10
2024-03-04T00:04:40.664Z,20.75
2024-03-04T00:07:09.108Z,19.50
2024-03-04T00:09:37.612Z,18.25
2024-03-04T00:12:06.702Z,18.65
2024-03-04T00:14:35.608Z,19.15
2024-03-04T00:17:03.772Z,20.30
2024-03-04T00:19:32.271Z,19.13
2024-03-04T00:22:02.475Z,24.63
2024-03-04T00:24:30.615Z,21.27
2024-03-04T00:26:58.897Z,20.10
2024-03-04T00:29:28.532Z,20.77
2024-03-04T00:31:56.692Z,18.60
2024-03-04T00:34:24.890Z,18.25
2024-03-04T00:36:53.547Z,21.60
2024-03-04T00:39:23.329Z,22.40
2024-03-04T00:41:52.091Z,24.38
2024-03-04T00:44:21.382Z,23.95
2024-03-04T00:46:49.420Z,21.63
2024-03-04T00:49:17.498Z,20.63
2024-03-04T00:51:46.984Z,22.00
2024-03-04T00:54:15.423Z,18.40
2024-03-04T00:56:45.021Z,22.23
2024-03-04T00:59:13.425Z,21.02
2024-03-04T01:01:41.668Z,18.00
2024-03-04T01:04:09.884Z,19.60
2024-03-04T01:06:39.690Z,26.60
2024-03-04T01:09:12.057Z,25.73
2024-03-04T01:11:40.233Z,22.20
2024-03-04T01:14:09.862Z,24.73
2024-03-04T01:16:38.229Z,22.70
2024-03-04T01:19:07.065Z,20.63
2024-03-04T01:21:35.345Z,21.95
2024-03-04T01:24:03.939Z,21.38
2024-03-04T01:26:32.553Z,19.75
2024-03-04T01:29:00.716Z,17.85
2024-03-04T01:31:30.276Z,24.48
2024-03-04T01:33:58.793Z,22.92
2024-03-04T01:36:26.955Z,20.15
2024-03-04T01:38:55.148Z,25.17
2024-03-04T01:41:23.501Z,21.45
2024-03-04T01:43:51.791Z,23.55
2024-03-04T01:46:20.291Z,21.05
2024-03-04T01:48:50.110Z,21.95
2024-03-04T01:51:20.741Z,24.50
2024-03-04T01:53:49.194Z,22.42
2024-03-04T01:56:17.554Z,25.35
2024-03-04T01:58:49.553Z,22.75
2024-03-04T02:01:18.216Z,25.05
2024-03-04T02:03:47.332Z,19.33
2024-03-04T02:06:18.128Z,27.45
2024-03-04T02:08:46.495Z,24.05
2024-03-04T02:11:14.704Z,26.95
2024-03-04T02:13:42.917Z,28.70
2024-03-04T02:16:11.080Z,27.70
2024-03-04T02:18:39.418Z,26.52
2024-03-04T02:21:09.247Z,28.42
2024-03-04T02:23:38.805Z,24.13
2024-03-04T02:26:07.185Z,28.77
2024-03-04T02:28:35.421Z,25.17
2024-03-04T02:31:06.962Z,29.60
2024-03-04T02:33:35.571Z,28.77
2024-03-04T02:36:04.330Z,27.90
2024-03-04T02:38:33.603Z,27.00
2024-03-04T02:41:05.550Z,28.70
2024-03-04T02:43:34.049Z,27.10
2024-03-04T02:46:02.317Z,31.02
2024-03-04T02:48:30.529Z,34.38
2024-03-04T02:50:58.752Z,28.27
2024-03-04T02:53:27.315Z,27.70
2024-03-04T02:55:55.359Z,26.25
2024-03-04T02:58:25.027Z,24.83
2024-03-04T03:00:53.292Z,28.80
2024-03-04T03:03:23.818Z,29.30
2024-03-04T03:05:52.048Z,27.23
2024-03-04T03:08:20.400Z,30.42
2024-03-04T03:10:48.985Z,30.90
2024-03-04T03:13:17.333Z,28.75
2024-03-04T03:15:46.293Z,24.15
2024-03-04T03:18:15.203Z,24.75
2024-03-04T03:20:42.530Z,29.60
2024-03-04T03:23:10.739Z,29.73
2024-03-04T03:25:39.285Z,27.00
2024-03-04T03:28:07.865Z,38.38
2024-03-04T03:30:36.434Z,35.28
2024-03-04T03:33:06.483Z,29.67
2024-03-04T03:35:34.733Z,32.55
2024-03-04T03:38:03.239Z,39.92
2024-03-04T03:40:32.468Z,44.78
2024-03-04T03:43:00.800Z,47.33
2024-03-04T03:45:29.092Z,52.25
2024-03-04T03:47:57.259Z,50.65
2024-03-04T03:50:26.769Z,46.35
2024-03-04T03:52:55.150Z,42.67
2024-03-04T03:55:23.353Z,58.03
2024-03-04T03:57:58.014Z,58.30
2024-03-04T04:00:29.854Z,76.05
2024-03-04T04:02:59.852Z,79.72
2024-03-04T04:05:29.400Z,78.03
2024-03-04T04:07:59.275Z,76.63
2024-03-04T04:10:27.602Z,79.07
2024-03-04T04:12:55.908Z,79.47
2024-03-04T04:15:26.766Z,65.07
2024-03-04T04:17:57.319Z,77.22
2024-03-04T04:20:25.654Z,73.47
2024-03-04T04:22:55.815Z,82.70
2024-03-04T04:25:24.154Z,71.05
2024-03-04T04:27:52.457Z,89.03
2024-03-04T04:30:21.883Z,86.97
2024-03-04T04:32:50.182Z,93.32
2024-03-04T04:35:18.400Z,82.93
2024-03-04T04:37:47.262Z,81.85
2024-03-04T04:40:21.258Z,77.50
2024-03-04T04:42:49.546Z,86.75
2024-03-04T04:45:18.918Z,96.43
2024-03-04T04:47:47.303Z,99.50
2024-03-04T04:50:15.709Z,102.95
2024-03-04T04:52:43.867Z,100.88
2024-03-04T04:55:15.028Z,95.68
2024-03-04T04:57:46.474Z,100.50
2024-03-04T05:00:15.907Z,103.47
2024-03-04T05:02:44.151Z,94.93
2024-03-04T05:05:12.385Z,97.13
2024-03-04T05:07:40.923Z,104.10
2024-03-04T05:10:10.642Z,100.75
2024-03-04T05:12:38.981Z,108.88
2024-03-04T05:15:09.802Z,108.35
2024-03-04T05:17:39.080Z,103.15
2024-03-04T05:20:08.718Z,110.35
2024-03-04T05:22:37.289Z,99.88
2024-03-04T05:25:07.525Z,96.85
2024-03-04T05:27:35.823Z,97.95
2024-03-04T05:30:04.093Z,101.47
2024-03-04T05:32:33.550Z,97.63
2024-03-04T05:35:01.850Z,108.40
2024-03-04T05:37:30.409Z,105.57
2024-03-04T05:39:58.735Z,100.00
2024-03-04T05:42:26.855Z,96.47
2024-03-04T05:44:55.279Z,93.85
2024-03-04T05:47:23.593Z,93.65
2024-03-04T05:49:53.358Z,110.32
2024-03-04T05:52:22.032Z,96.53
2024-03-04T05:54:50.143Z,95.78
2024-03-04T05:57:18.315Z,90.10
2024-03-04T05:59:46.440Z,86.43
2024-03-04T06:02:15.587Z,92.18
2024-03-04T06:04:44.030Z,92.90
2024-03-04T06:07:13.587Z,76.68
2024-03-04T06:09:41.912Z,84.53
2024-03-04T06:12:10.515Z,85.70
2024-03-04T06:14:38.817Z,85.20
2024-03-04T06:17:07.956Z,91.82
2024-03-04T06:19:36.074Z,92.95
2024-03-04T06:22:11.852Z,101.30
2024-03-04T06:24:42.942Z,75.15
2024-03-04T06:27:11.162Z,83.50
2024-03-04T06:29:39.303Z,85.25
2024-03-04T06:32:08.460Z,92.78
2024-03-04T06:34:37.094Z,93.47
2024-03-04T06:37:05.454Z,93.00
2024-03-04T06:39:34.989Z,93.93
2024-03-04T06:42:04.861Z,83.95
2024-03-04T06:44:33.094Z,88.32
2024-03-04T06:47:01.304Z,85.50
2024-03-04T06:49:29.539Z,88.93
2024-03-04T06:51:58.011Z,95.22
2024-03-04T06:54:26.612Z,84.18
2024-03-04T06:56:54.722Z,95.45
2024-03-04T06:59:24.222Z,91.65
2024-03-04T07:01:52.668Z,82.05
2024-03-04T07:04:21.184Z,82.80
2024-03-04T07:06:49.458Z,86.78
2024-03-04T07:09:17.560Z,89.25
2024-03-04T07:11:45.699Z,85.15
2024-03-04T07:14:13.838Z,78.75
2024-03-04T07:16:43.355Z,108.18
2024-03-04T07:19:11.645Z,137.60
2024-03-04T07:21:39.727Z,100.95
2024-03-04T07:24:08.681Z,84.00
2024-03-04T07:26:37.186Z,83.70
2024-03-04T07:29:08.349Z,72.20
2024-03-04T07:31:41.629Z,76.63
2024-03-04T07:34:11.680Z,78.60
2024-03-04T07:36:39.924Z,72.68
2024-03-04T07:39:09.054Z,84.70
2024-03-04T07:41:37.305Z,79.15
2024-03-04T07:44:06.027Z,77.65
2024-03-04T07:46:34.199Z,102.22
2024-03-04T07:49:02.608Z,90.18
2024-03-04T07:51:32.164Z,100.25
2024-03-04T07:54:00.373Z,93.93
2024-03-04T07:56:28.549Z,70.55
2024-03-04T07:58:57.017Z,73.00
2024-03-04T08:01:25.282Z,175.43
2024-03-04T08:03:53.592Z,116.93
2024-03-04T08:06:22.259Z,100.90
2024-03-04T08:08:52.137Z,67.20
2024-03-04T08:11:20.626Z,63.30
2024-03-04T08:13:48.978Z,59.25
2024-03-04T08:16:17.520Z,62.35
2024-03-04T08:18:45.836Z,59.75
2024-03-04T08:21:16.831Z,54.45
2024-03-04T08:23:45.245Z,52.38
2024-03-04T08:26:15.148Z,51.97
2024-03-04T08:28:44.608Z,48.30
2024-03-04T08:31:13.459Z,56.83
2024-03-04T08:33:41.913Z,46.22
2024-03-04T08:36:10.395Z,49.17
2024-03-04T08:38:39.867Z,45.67
2024-03-04T08:41:08.046Z,49.42
2024-03-04T08:43:37.640Z,47.13
2024-03-04T08:46:06.436Z,48.80
2024-03-04T08:48:34.808Z,50.50
2024-03-04T08:51:03.212Z,52.58
2024-03-04T08:53:31.695Z,49.85
2024-03-04T08:56:00.394Z,51.00
2024-03-04T08:58:28.734Z,52.10
2024-03-04T09:01:01.664Z,53.33
2024-03-04T09:03:30.545Z,50.60
2024-03-04T09:05:58.932Z,48.83
2024-03-04T09:08:27.256Z,49.67
2024-03-04T09:10:55.921Z,52.78
2024-03-04T09:13:25.040Z,51.70
2024-03-04T09:15:53.670Z,50.05
2024-03-04T09:18:23.487Z,46.53
2024-03-04T09:20:51.757Z,44.50
2024-03-04T09:23:20.404Z,53.03
2024-03-04T09:25:48.704Z,46.08
2024-03-04T09:28:17.113Z,39.15
2024-03-04T09:30:45.413Z,36.75
2024-03-04T09:33:13.742Z,42.65
2024-03-04T09:35:43.601Z,34.65
2024-03-04T09:38:12.572Z,35.03
2024-03-04T09:40:41.307Z,34.28
2024-03-04T09:43:12.844Z,34.38
2024-03-04T09:45:42.706Z,33.58
2024-03-04T09:48:14.522Z,33.08
2024-03-04T09:50:44.674Z,34.83
2024-03-04T09:53:16.890Z,30.17
2024-03-04T09:55:45.293Z,36.40
2024-03-04T09:58:14.775Z,34.05
2024-03-04T10:00:44.146Z,33.53
2024-03-04T10:03:13.080Z,29.17
2024-03-04T10:05:43.732Z,32.33
2024-03-04T10:08:13.455Z,30.63
2024-03-04T10:10:41.912Z,29.17
2024-03-04T10:13:11.893Z,32.72
2024-03-04T10:15:41.928Z,30.80
2024-03-04T10:18:14.517Z,28.05
2024-03-04T10:20:42.940Z,32.83
2024-03-04T10:23:13.670Z,30.67
2024-03-04T10:25:42.639Z,29.83
2024-03-04T10:28:13.977Z,29.30
2024-03-04T10:30:42.518Z,31.75
2024-03-04T10:33:11.217Z,33.58
2024-03-04T10:35:39.457Z,30.70
2024-03-04T10:38:08.923Z,31.38
2024-03-04T10:40:39.578Z,29.00
2024-03-04T10:43:09.396Z,31.77
2024-03-04T10:45:38.520Z,28.02
2024-03-04T10:48:09.418Z,30.45
2024-03-04T10:50:37.927Z,29.70
2024-03-04T10:53:06.618Z,29.55
2024-03-04T10:55:35.361Z,31.48
2024-03-04T10:58:06.155Z,30.23
2024-03-04T11:00:35.127Z,30.40
2024-03-04T11:03:14.039Z,28.42
2024-03-04T11:05:45.183Z,31.17
2024-03-04T11:08:17.174Z,25.65
2024-03-04T11:10:50.368Z,26.98
2024-03-04T11:13:25.750Z,27.80
2024-03-04T11:15:59.716Z,27.95
2024-03-04T11:18:38.856Z,28.13
2024-03-04T11:21:07.625Z,29.23
2024-03-04T11:23:36.518Z,25.90
2024-03-04T11:26:05.724Z,27.85
2024-03-04T11:28:36.354Z,27.52
2024-03-04T11:31:10.943Z,27.65
2024-03-04T11:33:41.879Z,24.88
2024-03-04T11:36:11.090Z,25.25
2024-03-04T11:38:44.050Z,25.48
2024-03-04T11:41:12.783Z,25.17
2024-03-04T11:43:50.392Z,25.23
2024-03-04T11:46:21.360Z,27.60
2024-03-04T11:48:49.580Z,28.23
2024-03-04T11:51:45.718Z,26.45
2024-03-04T11:54:13.796Z,32.28
2024-03-04T11:56:42.523Z,27.30
2024-03-04T11:59:15.086Z,29.92
2024-03-04T12:01:44.440Z,28.67
2024-03-04T12:04:12.714Z,27.98
2024-03-04T12:06:41.908Z,30.40
2024-03-04T12:09:28.859Z,27.98
2024-03-04T12:11:58.447Z,27.55
2024-03-04T12:14:28.043Z,29.92
2024-03-04T12:16:56.232Z,73.18
2024-03-04T12:19:25.193Z,39.05
2024-03-04T12:21:54.588Z,46.33
2024-03-04T12:24:24.432Z,29.75
2024-03-04T12:26:55.955Z,42.33
2024-03-04T12:29:25.555Z,36.63
2024-03-04T12:31:56.093Z,33.60
2024-03-04T12:34:24.836Z,27.45
2024-03-04T12:36:53.574Z,26.67
2024-03-04T12:39:21.879Z,30.48
2024-03-04T12:41:50.565Z,29.38
2024-03-04T12:44:23.117Z,28.27
2024-03-04T12:46:53.960Z,25.23
2024-03-04T12:49:23.508Z,30.35
2024-03-04T12:51:52.151Z,28.45
2024-03-04T12:54:27.231Z,29.33
2024-03-04T12:56:55.885Z,29.38
2024-03-04T12:59:24.144Z,31.17
2024-03-04T13:01:52.409Z,28.45
2024-03-04T13:04:20.551Z,26.58
2024-03-04T13:06:50.612Z,28.85
2024-03-04T13:09:18.892Z,25.05
2024-03-04T13:11:47.552Z,29.65
2024-03-04T13:14:16.132Z,32.42
2024-03-04T13:16:44.492Z,28.83
2024-03-04T13:19:13.801Z,30.65
2024-03-04T13:21:41.972Z,26.00
2024-03-04T13:24:11.683Z,29.42
2024-03-04T13:26:41.766Z,31.23
2024-03-04T13:29:11.725Z,31.15
2024-03-04T13:31:40.233Z,30.77
2024-03-04T13:34:08.546Z,28.25
2024-03-04T13:36:36.828Z,26.35
2024-03-04T13:39:05.211Z,29.17
2024-03-04T13:41:35.050Z,23.73
2024-03-04T13:44:03.577Z,25.60
2024-03-04T13:46:32.069Z,29.15
2024-03-04T13:49:00.474Z,26.08
2024-03-04T13:51:28.679Z,26.67
2024-03-04T13:53:57.039Z,32.15
2024-03-04T13:56:25.217Z,69.30
2024-03-04T13:58:55.048Z,37.05
2024-03-04T14:01:23.649Z,25.77
2024-03-04T14:03:52.112Z,30.05
2024-03-04T14:06:20.780Z,26.13
2024-03-04T14:08:49.049Z,24.42
2024-03-04T14:11:17.694Z,27.58
2024-03-04T14:13:46.061Z,23.70
2024-03-04T14:16:16.193Z,24.88
2024-03-04T14:18:44.618Z,21.33
2024-03-04T14:21:13.251Z,22.83
2024-03-04T14:23:41.843Z,26.15
2024-03-04T14:26:11.752Z,25.38
2024-03-04T14:28:40.324Z,26.83
2024-03-04T14:31:09.039Z,23.65
2024-03-04T14:33:39.206Z,22.77
2024-03-04T14:36:07.845Z,25.73
2024-03-04T14:38:37.189Z,26.80
2024-03-04T14:41:05.779Z,25.23
2024-03-04T14:43:34.874Z,26.85
2024-03-04T14:46:03.012Z,25.23
2024-03-04T14:48:31.743Z,24.17
2024-03-04T14:51:01.417Z,26.27
2024-03-04T14:53:33.235Z,26.90
2024-03-04T14:56:03.036Z,27.10
2024-03-04T14:58:31.277Z,24.75
2024-03-04T15:00:59.998Z,24.48
2024-03-04T15:03:29.317Z,27.77
2024-03-04T15:05:58.244Z,29.65
2024-03-04T15:08:27.722Z,25.65
2024-03-04T15:10:59.347Z,22.20
2024-03-04T15:13:29.464Z,27.55
2024-03-04T15:15:57.860Z,24.75
2024-03-04T15:18:26.127Z,26.35
2024-03-04T15:20:54.614Z,23.45
2024-03-04T15:23:23.127Z,25.45
2024-03-04T15:25:53.058Z,22.77
2024-03-04T15:28:21.296Z,26.65
2024-03-04T15:30:49.666Z,29.58
2024-03-04T15:33:18.543Z,24.67
2024-03-04T15:35:48.160Z,23.60
2024-03-04T15:38:17.985Z,27.35
2024-03-04T15:40:47.021Z,23.83
2024-03-04T15:43:17.112Z,26.08
2024-03-04T15:45:46.473Z,27.23
2024-03-04T15:48:15.160Z,26.92
2024-03-04T15:50:43.813Z,30.90
2024-03-04T15:53:12.159Z,29.00
2024-03-04T15:55:41.294Z,26.25
2024-03-04T15:58:10.796Z,28.42
2024-03-04T16:00:41.331Z,27.85
2024-03-04T16:03:09.875Z,28.02
2024-03-04T16:05:38.517Z,25.40
2024-03-04T16:08:10.654Z,28.55
2024-03-04T16:10:39.394Z,32.95
2024-03-04T16:13:07.898Z,34.83
2024-03-04T16:15:41.706Z,34.53
2024-03-04T16:18:19.130Z,36.80
2024-03-04T16:20:47.484Z,43.33
2024-03-04T16:23:16.354Z,38.70
2024-03-04T16:25:44.938Z,35.85
2024-03-04T16:28:13.343Z,39.63
2024-03-04T16:30:42.027Z,34.30
2024-03-04T16:33:10.665Z,39.40
2024-03-04T16:35:40.453Z,40.35
2024-03-04T16:38:10.067Z,34.90
2024-03-04T16:40:38.636Z,31.77
2024-03-04T16:43:07.621Z,32.78
2024-03-04T16:45:36.859Z,32.33
2024-03-04T16:48:05.555Z,28.73
2024-03-04T16:50:33.876Z,35.75
2024-03-04T16:53:03.733Z,30.10
2024-03-04T16:55:34.782Z,35.08
2024-03-04T16:58:04.664Z,31.02
2024-03-04T17:00:32.789Z,31.63
2024-03-04T17:03:02.942Z,30.10
2024-03-04T17:05:31.638Z,33.35
2024-03-04T17:07:59.968Z,27.38
2024-03-04T17:10:29.864Z,31.38
2024-03-04T17:12:59.034Z,30.00
2024-03-04T17:15:27.773Z,31.15
2024-03-04T17:17:56.165Z,27.30
2024-03-04T17:20:24.600Z,28.35
2024-03-04T17:22:53.033Z,29.45
2024-03-04T17:25:22.144Z,25.13
2024-03-04T17:27:52.152Z,29.33
2024-03-04T17:30:21.122Z,28.08
2024-03-04T17:32:49.715Z,26.33
2024-03-04T17:35:18.331Z,33.60
2024-03-04T17:37:46.988Z,27.63
2024-03-04T17:40:15.408Z,26.75
2024-03-04T17:42:44.181Z,24.80
2024-03-04T17:45:14.916Z,22.73
2024-03-04T17:47:43.322Z,26.08
2024-03-04T17:50:13.508Z,30.67
2024-03-04T17:52:43.581Z,30.40
2024-03-04T17:55:12.671Z,24.13
2024-03-04T17:57:41.151Z,23.10
2024-03-04T18:00:11.066Z,20.58
2024-03-04T18:02:41.255Z,18.58
2024-03-04T18:05:13.089Z,21.75
2024-03-04T18:07:41.898Z,22.63
2024-03-04T18:10:11.153Z,18.80
2024-03-04T18:12:39.553Z,22.52
2024-03-04T18:15:08.963Z,19.13
2024-03-04T18:17:37.404Z,21.00
2024-03-04T18:20:08.997Z,20.75
2024-03-04T18:22:37.415Z,18.08
2024-03-04T18:25:07.433Z,16.20
2024-03-04T18:27:35.708Z,17.15
2024-03-04T18:30:05.295Z,22.90
2024-03-04T18:32:33.784Z,21.23
2024-03-04T18:35:02.308Z,18.40
2024-03-04T18:37:32.350Z,17.85
2024-03-04T18:40:00.900Z,16.98
2024-03-04T18:42:29.361Z,19.13
2024-03-04T18:44:57.754Z,18.88
2024-03-04T18:47:26.226Z,124.15
2024-03-04T18:49:54.833Z,102.95
2024-03-04T18:52:25.616Z,31.48
2024-03-04T18:54:56.339Z,26.00
2024-03-04T18:57:25.319Z,19.13
2024-03-04T18:59:53.806Z,17.60
2024-03-04T19:02:26.845Z,23.63
2024-03-04T19:04:55.386Z,18.27
2024-03-04T19:07:24.230Z,20.83
2024-03-04T19:09:52.738Z,19.08
2024-03-04T19:12:27.716Z,20.23
2024-03-04T19:14:56.485Z,15.45
2024-03-04T19:17:25.326Z,18.60
2024-03-04T19:19:54.008Z,18.63
2024-03-04T19:22:22.893Z,19.73
2024-03-04T19:24:52.351Z,18.17
2024-03-04T19:27:24.790Z,19.70
2024-03-04T19:29:53.534Z,20.60
2024-03-04T19:32:22.152Z,22.48
2024-03-04T19:34:50.981Z,18.08
2024-03-04T19:37:19.755Z,21.13
2024-03-04T19:39:48.479Z,18.90
2024-03-04T19:42:22.095Z,19.13
2024-03-04T19:44:52.171Z,22.75
2024-03-04T19:47:21.078Z,18.25
2024-03-04T19:49:50.133Z,21.88
2024-03-04T19:52:18.984Z,22.67
2024-03-04T19:54:48.536Z,19.73
2024-03-04T19:57:20.635Z,21.98
2024-03-04T19:59:49.824Z,19.27
2024-03-04T20:02:20.135Z,22.10
2024-03-04T20:04:49.048Z,22.15
2024-03-04T20:07:18.885Z,21.48
2024-03-04T20:09:47.909Z,20.48
2024-03-04T20:12:16.541Z,23.30
2024-03-04T20:14:45.339Z,23.40
2024-03-04T20:17:14.184Z,23.02
2024-03-04T20:19:44.304Z,26.98
2024-03-04T20:22:12.843Z,26.70
2024-03-04T20:24:42.792Z,25.90
2024-03-04T20:27:11.325Z,22.73
2024-03-04T20:29:40.174Z,26.83
2024-03-04T20:32:09.103Z,23.48
2024-03-04T20:34:37.848Z,27.13
2024-03-04T20:37:08.312Z,27.80
2024-03-04T20:39:37.245Z,30.77
2024-03-04T20:42:06.841Z,25.15
2024-03-04T20:44:35.775Z,26.02
2024-03-04T20:47:05.460Z,28.25
2024-03-04T20:49:34.931Z,27.23
2024-03-04T20:52:04.148Z,26.83
2024-03-04T20:54:34.312Z,26.10
2024-03-04T20:57:03.132Z,25.30
2024-03-04T20:59:32.102Z,26.05
2024-03-04T21:02:00.727Z,25.60
2024-03-04T21:04:29.208Z,24.35
2024-03-04T21:06:58.087Z,26.95
2024-03-04T21:09:26.740Z,27.15
2024-03-04T21:11:56.993Z,30.00
2024-03-04T21:14:25.664Z,26.30
2024-03-04T21:16:54.388Z,25.55
2024-03-04T21:19:22.996Z,28.42
2024-03-04T21:21:51.528Z,29.27
2024-03-04T21:24:20.346Z,27.67
2024-03-04T21:26:49.034Z,28.17
2024-03-04T21:29:19.519Z,28.77
2024-03-04T21:31:48.043Z,34.55
2024-03-04T21:34:17.041Z,27.05
2024-03-04T21:36:45.901Z,36.40
2024-03-04T21:39:15.402Z,28.42
2024-03-04T21:41:44.383Z,30.27
2024-03-04T21:44:13.469Z,29.00
2024-03-04T21:46:46.202Z,32.10
2024-03-04T21:49:16.856Z,28.52
2024-03-04T21:51:46.085Z,37.03
2024-03-04T21:54:15.187Z,32.20
2024-03-04T21:56:45.107Z,33.50
2024-03-04T21:59:14.447Z,33.35
2024-03-04T22:01:44.596Z,32.97
2024-03-04T22:04:13.537Z,38.25
2024-03-04T22:06:42.285Z,30.77
2024-03-04T22:09:11.071Z,30.45
2024-03-04T22:11:46.498Z,39.60
2024-03-04T22:14:15.713Z,31.77
2024-03-04T22:16:47.051Z,29.38
2024-03-04T22:19:15.761Z,30.85
2024-03-04T22:21:44.245Z,31.35
2024-03-04T22:24:12.837Z,37.63
2024-03-04T22:26:41.173Z,34.95
2024-03-04T22:29:10.249Z,31.48
2024-03-04T22:31:43.762Z,33.10
2024-03-04T22:34:13.685Z,34.20
2024-03-04T22:36:42.596Z,31.15
2024-03-04T22:39:11.656Z,30.15
2024-03-04T22:41:46.941Z,33.65
2024-03-04T22:44:15.378Z,36.60
2024-03-04T22:46:43.975Z,34.58
2024-03-04T22:49:14.376Z,31.00
2024-03-04T22:51:42.439Z,33.28
2024-03-04T22:54:10.837Z,34.35
2024-03-04T22:56:39.292Z,35.22
2024-03-04T22:59:08.116Z,38.65
2024-03-04T23:01:36.856Z,30.95
2024-03-04T23:04:05.489Z,37.33
2024-03-04T23:06:35.326Z,32.45
2024-03-04T23:09:05.315Z,35.83
2024-03-04T23:11:33.778Z,34.90
2024-03-04T23:14:02.173Z,36.63
2024-03-04T23:16:30.480Z,35.55
2024-03-04T23:18:58.632Z,34.97
2024-03-04T23:21:26.792Z,35.75
2024-03-04T23:23:56.494Z,41.63
2024-03-04T23:26:24.692Z,37.25
2024-03-04T23:28:54.658Z,37.78
2024-03-04T23:31:26.574Z,32.85
2024-03-04T23:33:54.995Z,30.95
2024-03-04T23:36:23.342Z,37.25
2024-03-04T23:38:51.676Z,33.05
2024-03-04T23:41:21.452Z,36.88
2024-03-04T23:43:49.873Z,33.47
2024-03-04T23:46:18.172Z,35.72
2024-03-04T23:48:46.310Z,36.15
2024-03-04T23:51:14.368Z,27.83
2024-03-04T23:53:42.670Z,31.70
2024-03-04T23:56:11.132Z,37.95
2024-03-04T23:58:40.712Z,40.38
